WetterOnline ( https://www.wetteronline.de )

Wetter aktuell Kiedrich

Aktuelles Wetter: Geisenheim (110m)

6-stündlich | Neueste Meldungen
Ortszeit Temperatur Wetter
Di, 27.10. 13:00 11.9° C bewölkt
Di, 27.10. 7:00 7.8° C bewölkt
Di, 27.10. 1:00 6.8° C wolkig
Mo, 26.10. 19:00 9.3° C wolkig
Mo, 26.10. 13:00 11.7° C wolkig
Mo, 26.10. 7:00 10.4° C leichter Regen
Mo, 26.10. 1:00 10.7° C leichter Regen
So, 25.10. 19:00 12.0° C leichter Regen
Ortszeit Temperatur Wetter
Di, 27.10. 15:00 12.1° C bewölkt
Di, 27.10. 14:50 12.1° C bewölkt
Di, 27.10. 14:40 12.2° C bewölkt
Di, 27.10. 14:30 12.4° C bewölkt
Di, 27.10. 14:20 12.4° C bewölkt
Di, 27.10. 14:10 12.3° C wolkig
Di, 27.10. 14:00 12.3° C wolkig
Di, 27.10. 13:30 12.0° C bewölkt
Di, 27.10. 13:00 11.9° C bewölkt
Di, 27.10. 12:30 11.5° C bedeckt
Di, 27.10. 12:00 11.6° C bedeckt
Ortszeit Relative Feuchte Sichtweite
Di, 27.10. 13:00 71% 60 km
Di, 27.10. 7:00 93% 35 km
Di, 27.10. 1:00 93% 40 km
Mo, 26.10. 19:00 80% 50 km
Mo, 26.10. 13:00 72% >70 km
Mo, 26.10. 7:00 95% 40 km
Mo, 26.10. 1:00 95% 24 km
So, 25.10. 19:00 93% 35 km
Ortszeit Relative Feuchte Sichtweite
Di, 27.10. 15:00 67% 50 km
Di, 27.10. 14:50 67% -
Di, 27.10. 14:40 67% -
Di, 27.10. 14:30 65% 50 km
Di, 27.10. 14:20 65% -
Di, 27.10. 14:10 65% -
Di, 27.10. 14:00 64% 55 km
Di, 27.10. 13:30 69% >70 km
Di, 27.10. 13:00 71% 60 km
Di, 27.10. 12:30 72% 55 km
Di, 27.10. 12:00 71% 55 km
Ortszeit Niederschlagsmenge Niederschlagsart
Di, 27.10. 13:00 0.1 l/m2 in 6 Std. Sprühregen
Di, 27.10. 7:00 0.1 l/m2 in 12 Std. Regen
Di, 27.10. 1:00 0.0 l/m2 in 6 Std. -
Mo, 26.10. 19:00 0.2 l/m2 in 12 Std. -
Mo, 26.10. 13:00 0.2 l/m2 in 6 Std. Regen
Mo, 26.10. 7:00 3 l/m2 in 12 Std. Regen
Mo, 26.10. 1:00 0.6 l/m2 in 6 Std. Regen
So, 25.10. 19:00 3 l/m2 in 12 Std. Regen
Ortszeit Niederschlagsmenge Niederschlagsart
Di, 27.10. 15:00 0.0 l/m2 in 1 Std. -
Di, 27.10. 14:50 keine Meldung -
Di, 27.10. 14:40 keine Meldung -
Di, 27.10. 14:30 0.0 l/m2 in 1 Std. -
Di, 27.10. 14:20 keine Meldung -
Di, 27.10. 14:10 keine Meldung -
Di, 27.10. 14:00 0.0 l/m2 in 1 Std. -
Di, 27.10. 13:30 0.0 l/m2 in 1 Std. -
Di, 27.10. 13:00 0.0 l/m2 in 1 Std. Sprühregen
Di, 27.10. 12:30 0.0 l/m2 in 1 Std. -
Di, 27.10. 12:00 0.0 l/m2 in 1 Std. -
Ortszeit Stärke Spitze Richtung
km/h Bft. km/h Grad Sektor
Di, 27.10. 13:00 13 3 41 210° SW
Di, 27.10. 7:00 4 1 11 130° SO
Di, 27.10. 1:00 4 1 14 130° SO
Mo, 26.10. 19:00 4 1 29 220° SW
Mo, 26.10. 13:00 11 2 22 260° W
Mo, 26.10. 7:00 7 2 14 230° SW
Mo, 26.10. 1:00 0 0 11 - -
So, 25.10. 19:00 6 1 30 130° SO
Ortszeit Stärke Spitze Richtung
km/h Bft. km/h Grad Sektor
Di, 27.10. 15:00 20 4 35 210° SW
Di, 27.10. 14:50 20 4 - 210° SW
Di, 27.10. 14:40 22 4 - 210° SW
Di, 27.10. 14:30 17 3 30 210° SW
Di, 27.10. 14:20 17 3 - 210° SW
Di, 27.10. 14:10 19 3 - 220° SW
Di, 27.10. 14:00 18 3 32 210° SW
Di, 27.10. 13:30 14 3 25 220° SW
Di, 27.10. 13:00 13 3 26 210° SW
Di, 27.10. 12:30 14 3 25 220° SW
Di, 27.10. 12:00 14 3 43 240° SW
Ortszeit Untergrenze Bedeckung Gattung
total tief tief mittel hoch
Di, 27.10. 13:00 900 m 7/8 7/8 - - -
Di, 27.10. 7:00 540 m 7/8 7/8 - - -
Di, 27.10. 1:00 1800 m 5/8 5/8 - - -
Mo, 26.10. 19:00 1500 m 7/8 3/8 - - -
Mo, 26.10. 13:00 720 m 8/8 2/8 - - -
Mo, 26.10. 7:00 180 m 8/8 8/8 - - -
Mo, 26.10. 1:00 240 m 8/8 8/8 - - -
So, 25.10. 19:00 180 m 8/8 8/8 - - -
Ortszeit Bedeckungsgrad in Achtel und Wolkenuntergrenze
Di, 27.10. 15:00 2(1200m) 6(1470m) 8(6000m)
Di, 27.10. 14:50 2(1200m) 6(1470m) 8(6000m)
Di, 27.10. 14:40 5(1320m) 7(1500m) 8(6000m)
Di, 27.10. 14:30 7(1410m) 7(4800m) 8(6300m)
Di, 27.10. 14:20 7(1410m) 7(4800m) 8(6300m)
Di, 27.10. 14:10 1(1110m) 8(5100m) 8(5700m)
Di, 27.10. 14:00 3(1110m) 8(5100m) 8(5700m)
Di, 27.10. 13:30 2(1230m) 7(1440m) 8(6300m)
Di, 27.10. 13:00 1(900m) 7(1440m) 7(7200m)
Di, 27.10. 12:30 4(720m) 7(1050m) 8(1230m)
Di, 27.10. 12:00 2(690m) 6(960m) 8(1200m)
Ortszeit Luftdruck NN (hPa) Tendenz (hPa in 3 Std.)
Di, 27.10. 13:00 1010 + 0,3
Di, 27.10. 7:00 1009 + 1,0
Di, 27.10. 1:00 1008 + 0,3
Mo, 26.10. 19:00 1007 + 0,8
Mo, 26.10. 13:00 1005 + 0,2
Mo, 26.10. 7:00 1004 - 0,1
Mo, 26.10. 1:00 1005 - 0,3
So, 25.10. 19:00 1006 + 0,6
Ortszeit Luftdruck NN (hPa) Tendenz (hPa in 3 Std.)
Di, 27.10. 15:00 1010 - 0,3
Di, 27.10. 14:50 1010 keine Meldung
Di, 27.10. 14:40 1010 keine Meldung
Di, 27.10. 14:30 1009 - 0,5
Di, 27.10. 14:20 1009 keine Meldung
Di, 27.10. 14:10 1010 keine Meldung
Di, 27.10. 14:00 1010 - 0,1
Di, 27.10. 13:30 1010 0,0
Di, 27.10. 13:00 1010 + 0,3
Di, 27.10. 12:30 1010 + 0,5
Di, 27.10. 12:00 1010 + 0,2
Ortszeit Schneehöhe (cm)
Di, 27.10. 13:00 0
Di, 27.10. 7:00 0
Di, 27.10. 1:00 0
Mo, 26.10. 19:00 0
Mo, 26.10. 13:00 0
Mo, 26.10. 7:00 0
Mo, 26.10. 1:00 0
So, 25.10. 19:00 0
Ortszeit Schneehöhe (cm)
Di, 27.10. 15:00 0
Di, 27.10. 14:50 0
Di, 27.10. 14:40 0
Di, 27.10. 14:30 0
Di, 27.10. 14:20 0
Di, 27.10. 14:10 0
Di, 27.10. 14:00 0
Di, 27.10. 13:30 0
Di, 27.10. 13:00 0
Di, 27.10. 12:30 0
Di, 27.10. 12:00 0
Link zu dieser Seite / Seite empfehlen

Das Wetter in ...